Sao Francisco de Paula, Brazil
Current Conditions -  °F | °C
As of 2:00 PM on Saturday 22 Nov 2014 (Local Time) from SBPR Reporting Station
Few Clouds Few Clouds  
Wind Chill: 86°   Ceiling: Unl
Heat Index: 87°   Visibility: 6mi
Dew Point: 63°   Wind: 8mph
Humidity: 45%   Direction: 40°NE
Pressure: 30.03"   Gusts: NA
Location:  20.71°S, 44.99°W
Report Text: SBPR 221600Z 04007KT 9999 FEW030 30/17 Q1017
Loading
Personal Weather Stations






























Interactive Weather Map New forecast layout! Learn more

10-Day Weather Forecast

Advertisements
Track Severe Weather on mobile